Yongala, Australia
Current Conditions -  °F | °C
As of 2:00 PM on Monday 26 Jan 2015 (Local Time) from YWHA Reporting Station
Clear Clear  
Wind Chill: 72°   Ceiling: Unl
Heat Index: 72°   Visibility: 6mi
Dew Point: 52°   Wind: 14mph
Humidity: 50%   Direction: 160°SSE
Pressure: 30"   Gusts: NA
Location:  33.03°S, 138.75°E
Report Text: YWHA 260400Z AUTO 16012KT 130V190 9999 // NCD 22/11 Q1016
Loading
Personal Weather Stations






























Interactive Weather Map New forecast layout! Learn more

10-Day Weather Forecast

Advertisements
Track Severe Weather on mobile